Weather History for KMOX - October, 2012

Change the Weather History Date:

Wednesday, October 3, 2012

  Actual Average Record
Temperature  
Mean Temperature 60 °F -  
Max Temperature 78 °F 62 °F 82 °F (2011)
Min Temperature 41 °F 38 °F 23 °F (1996)
Degree Days  
Heating Degree Days 6    
Growing Degree Days 10 (Base 50)    
Moisture  
Dew Point 30 °F    
Average Humidity 34    
Maximum Humidity 57    
Minimum Humidity 17    
Precipitation  
Precipitation 0.00 in - - ()
Sea Level Pressure  
Sea Level Pressure 29.79 in    
Wind  
Wind Speed 9 mph (ESE)    
Max Wind Speed 16 mph    
Max Gust Speed 22 mph    
Visibility 10 miles    
Events      
Averages and records for this station are not official NWS values.
T = Trace of Precipitation, MM = Missing Value Source: NWS Daily Summary

Daily Weather History Graph

Daily Weather History Graph

Search for Another Location

Airport or City:

Trip Planner

Search our weather history database for the weather conditions in past years. The results will help you decide how hot, cold, wet, or windy it might be!

Date:

Astronomy

Oct. 03, 2012 Rise Set
Actual Time 7:25 AM CDT 6:59 PM CDT
Civil Twilight 6:55 AM CDT 7:28 PM CDT
Nautical Twilight 6:21 AM CDT 8:03 PM CDT
Astronomical Twilight 5:46 AM CDT 8:37 PM CDT
Moon 8:39 PM CDT (10/3) 11:01 AM CDT (10/3)
Length of Visible Light 12h 33m
Length of Day
11h 34m
Waning Gibbous, 88% of the Moon is Illuminated
Oct 3
Waning Gibbous
Oct 8
Last Quarter
Oct 15
New
Oct 21
First Quarter
Oct 29
Full

Hourly Weather History & Observations

Time (CDT) Temp. Windchill Dew Point Humidity Pressure Visibility Wind Dir Wind Speed Gust Speed Precip Events Conditions
12:10 AM 50.0 °F - 24.8 °F 37% 29.81 in 10.0 mi SSE 9.2 mph - N/A   Clear
12:30 AM 50.0 °F - 24.8 °F 37% 29.81 in 10.0 mi SSE 8.1 mph - N/A   Clear
12:50 AM 50.0 °F - 24.8 °F 37% 29.81 in 10.0 mi SSE 8.1 mph - N/A   Clear
1:10 AM 48.2 °F - 24.8 °F 40% 29.81 in 10.0 mi SSE 9.2 mph - N/A   Clear
1:30 AM 48.2 °F - 24.8 °F 40% 29.82 in 10.0 mi SSE 10.4 mph - N/A   Clear
1:50 AM 48.2 °F - 24.8 °F 40% 29.82 in 10.0 mi SE 9.2 mph - N/A   Clear
2:10 AM 46.4 °F 41.9 °F 24.8 °F 43% 29.82 in 10.0 mi SE 9.2 mph - N/A   Clear
2:30 AM 46.4 °F 42.4 °F 24.8 °F 43% 29.82 in 10.0 mi SE 8.1 mph - N/A   Clear
2:50 AM 46.4 °F 41.9 °F 24.8 °F 43% 29.82 in 10.0 mi SE 9.2 mph - N/A   Clear
3:10 AM 46.4 °F 45.2 °F 24.8 °F 43% 29.83 in 10.0 mi NNE 3.5 mph - N/A   Clear
3:30 AM 44.6 °F 43.1 °F 24.8 °F 46% 29.83 in 10.0 mi ESE 3.5 mph - N/A   Clear
3:50 AM 44.6 °F 42.2 °F 24.8 °F 46% 29.83 in 10.0 mi SE 4.6 mph - N/A   Clear
4:10 AM 42.8 °F 38.0 °F 24.8 °F 49% 29.83 in 10.0 mi SE 8.1 mph - N/A   Clear
4:30 AM 44.6 °F 40.2 °F 26.6 °F 49% 29.83 in 10.0 mi SE 8.1 mph - N/A   Clear
4:50 AM 42.8 °F 38.0 °F 26.6 °F 53% 29.83 in 10.0 mi SE 8.1 mph - N/A   Clear
5:10 AM 42.8 °F 38.0 °F 26.6 °F 53% 29.83 in 10.0 mi SE 8.1 mph - N/A   Clear
5:30 AM 42.8 °F 38.6 °F 26.6 °F 53% 29.83 in 10.0 mi SE 6.9 mph - N/A   Clear
5:50 AM 44.6 °F 39.7 °F 26.6 °F 49% 29.83 in 10.0 mi SE 9.2 mph - N/A   Clear
6:10 AM 44.6 °F 40.2 °F 26.6 °F 49% 29.83 in 10.0 mi SE 8.1 mph - N/A   Clear
6:30 AM 44.6 °F 42.2 °F 26.6 °F 49% 29.84 in 10.0 mi SE 4.6 mph - N/A   Clear
6:50 AM 44.6 °F 41.4 °F 26.6 °F 49% 29.85 in 10.0 mi SE 5.8 mph - N/A   Clear
7:10 AM 42.8 °F 39.3 °F 26.6 °F 53% 29.84 in 10.0 mi SE 5.8 mph - N/A   Clear
7:30 AM 41.0 °F 36.4 °F 26.6 °F 57% 29.84 in 10.0 mi SE 6.9 mph - N/A   Clear
7:50 AM 41.0 °F 37.1 °F 26.6 °F 57% 29.85 in 10.0 mi SE 5.8 mph - N/A   Clear
8:10 AM 42.8 °F 41.1 °F 26.6 °F 53% 29.85 in 10.0 mi ESE 3.5 mph - N/A   Clear
8:30 AM 46.4 °F - 28.4 °F 50% 29.85 in 10.0 mi Calm Calm - N/A   Clear
8:50 AM 48.2 °F - 30.2 °F 50% 29.84 in 10.0 mi ESE 3.5 mph - N/A   Clear
9:10 AM 53.6 °F - 30.2 °F 41% 29.85 in 10.0 mi East 4.6 mph - N/A   Clear
9:30 AM 53.6 °F - 30.2 °F 41% 29.85 in 10.0 mi ESE 3.5 mph - N/A   Clear
9:50 AM 57.2 °F - 30.2 °F 36% 29.85 in 10.0 mi Calm Calm - N/A   Clear
10:10 AM 59.0 °F - 30.2 °F 34% 29.85 in 10.0 mi Calm Calm - N/A   Clear
10:30 AM 60.8 °F - 32.0 °F 34% 29.85 in 10.0 mi NE 4.6 mph - N/A   Clear
10:50 AM 62.6 °F - 32.0 °F 32% 29.84 in 10.0 mi ENE 5.8 mph - N/A   Clear
11:10 AM 64.4 °F - 30.2 °F 28% 29.83 in 10.0 mi East 6.9 mph - N/A   Clear
11:30 AM 62.6 °F - 32.0 °F 32% 29.82 in 10.0 mi East 9.2 mph - N/A   Clear
11:50 AM 66.2 °F - 32.0 °F 28% 29.81 in 10.0 mi ESE 11.5 mph - N/A   Clear
12:10 PM 69.8 °F - 32.0 °F 25% 29.81 in 10.0 mi East 11.5 mph 18.4 mph N/A   Clear
12:30 PM 73.4 °F - 33.8 °F 23% 29.80 in 10.0 mi East 15.0 mph - N/A   Clear
12:50 PM 73.4 °F - 33.8 °F 23% 29.79 in 10.0 mi ESE 15.0 mph - N/A   Clear
1:10 PM 75.2 °F - 33.8 °F 22% 29.79 in 10.0 mi ESE 13.8 mph 20.7 mph N/A   Clear
1:30 PM 75.2 °F - 33.8 °F 22% 29.78 in 10.0 mi ESE 10.4 mph 18.4 mph N/A   Clear
1:50 PM 78.8 °F - 33.8 °F 20% 29.78 in 10.0 mi SE 11.5 mph 18.4 mph N/A   Clear
2:10 PM 78.8 °F - 33.8 °F 20% 29.78 in 10.0 mi SE 15.0 mph 18.4 mph N/A   Clear
2:30 PM 78.8 °F - 32.0 °F 18% 29.77 in 10.0 mi SE 11.5 mph 18.4 mph N/A   Clear
2:50 PM 75.2 °F - 32.0 °F 21% 29.76 in 10.0 mi SSE 12.7 mph - N/A   Clear
3:10 PM 75.2 °F - 32.0 °F 21% 29.77 in 10.0 mi SSE 16.1 mph - N/A   Clear
3:30 PM 78.8 °F - 32.0 °F 18% 29.76 in 10.0 mi SSE 11.5 mph - N/A   Clear
3:51 PM 75.2 °F - 33.8 °F 22% 29.75 in 10.0 mi ESE 15.0 mph - N/A   Clear
4:10 PM 78.8 °F - 30.2 °F 17% 29.74 in 10.0 mi SE 16.1 mph 21.9 mph N/A   Clear
4:30 PM 75.2 °F - 30.2 °F 19% 29.75 in 10.0 mi SE 15.0 mph - N/A   Clear
4:50 PM 75.2 °F - 30.2 °F 19% 29.75 in 10.0 mi SE 16.1 mph - N/A   Clear
5:10 PM 75.2 °F - 30.2 °F 19% 29.75 in 10.0 mi ESE 12.7 mph 18.4 mph N/A   Clear
5:30 PM 75.2 °F - 30.2 °F 19% 29.75 in 10.0 mi ESE 15.0 mph - N/A   Clear
5:50 PM 73.4 °F - 28.4 °F 19% 29.75 in 10.0 mi SE 12.7 mph - N/A   Clear
6:10 PM 73.4 °F - 28.4 °F 19% 29.76 in 10.0 mi SE 13.8 mph - N/A   Clear
6:30 PM 73.4 °F - 30.2 °F 20% 29.77 in 10.0 mi ESE 9.2 mph - N/A   Clear
6:50 PM 71.6 °F - 30.2 °F 22% 29.77 in 10.0 mi ESE 10.4 mph - N/A   Clear
7:10 PM 69.8 °F - 30.2 °F 23% 29.77 in 10.0 mi ESE 10.4 mph - N/A   Scattered Clouds
7:30 PM 64.4 °F - 30.2 °F 28% 29.77 in 10.0 mi ESE 10.4 mph - N/A   Clear
7:50 PM 64.4 °F - 30.2 °F 28% 29.77 in 10.0 mi East 9.2 mph - N/A   Clear
8:10 PM 64.4 °F - 30.2 °F 28% 29.76 in 10.0 mi East 10.4 mph - N/A   Clear
8:30 PM 64.4 °F - 32.0 °F 30% 29.76 in 10.0 mi East 11.5 mph - N/A   Clear
8:50 PM 62.6 °F - 33.8 °F 34% 29.75 in 10.0 mi East 10.4 mph - N/A   Clear
9:10 PM 62.6 °F - 33.8 °F 34% 29.75 in 10.0 mi East 10.4 mph - N/A   Clear
9:30 PM 64.4 °F - 33.8 °F 32% 29.75 in 10.0 mi East 10.4 mph - N/A   Mostly Cloudy
9:50 PM 64.4 °F - 35.6 °F 34% 29.74 in 10.0 mi East 11.5 mph - N/A   Overcast
10:10 PM 64.4 °F - 35.6 °F 34% 29.73 in 10.0 mi East 11.5 mph - N/A   Overcast
10:30 PM 64.4 °F - 35.6 °F 34% 29.72 in 10.0 mi East 11.5 mph - N/A   Mostly Cloudy
10:50 PM 64.4 °F - 35.6 °F 34% 29.71 in 10.0 mi East 12.7 mph - N/A   Scattered Clouds
11:10 PM 64.4 °F - 35.6 °F 34% 29.69 in 10.0 mi ESE 13.8 mph - N/A   Clear
11:30 PM 64.4 °F - 33.8 °F 32% 29.68 in 10.0 mi ESE 12.7 mph - N/A   Clear
11:50 PM 64.4 °F - 33.8 °F 32% 29.67 in 10.0 mi ESE 10.4 mph - N/A   Clear